East Wakefield, New Hampshire
Current Conditions -  °F | °C
As of 12:35 AM on Tuesday 27 Jan 2015 (Local Time) from KLCI Reporting Station
Overcast Overcast  
Wind Chill: -5°   Ceiling: 3300
Heat Index: 12°   Visibility: 10mi
Dew Point: -2°   Wind: 18mph
Humidity: 53%   Direction: 40°NE
Pressure: 29.91"   Gusts: 31mph
Location:  43.61°N, 71.01°W
Report Text: KLCI 270535Z AUTO 04016G27KT 10SM OVC033 M11/M19 A2991 RMK AO1
Loading
Personal Weather Stations






























Interactive Weather Map New forecast layout! Learn more

10-Day Weather Forecast

Advertisements
Track Severe Weather on mobile